Time;durP1;ratioP1;P1;durP2;ratioP2;P2;SDS_P1;SDS_P2;PMS_P1;PMS_P2;Temp;Humidity;BMP_temperature;BMP_pressure;BME280_temperature;BME280_humidity;BME280_pressure;Samples;Min_cycle;Max_cycle;Signal;HPM_P1;HPM_P2
2022/02/28 00:01:22;;;;;;;7.38;2.35;;;;;;;1.19;66.56;94196.72;5004585;28;20313;-78
2022/02/28 00:03:52;;;;;;;4.10;1.90;;;;;;;1.26;66.51;94191.28;5004626;28;20019;-78
2022/02/28 00:06:18;;;;;;;3.13;1.75;;;;;;;1.31;66.00;94185.31;5004629;28;20202;-78
2022/02/28 00:08:44;;;;;;;3.67;1.38;;;;;;;1.38;65.78;94189.31;5004370;28;20058;-77
2022/02/28 00:11:09;;;;;;;5.88;1.77;;;;;;;1.42;65.23;94181.72;5004441;28;20097;-77
2022/02/28 00:13:35;;;;;;;3.70;1.75;;;;;;;1.46;65.37;94187.28;5002134;28;20195;-78
2022/02/28 00:16:01;;;;;;;4.45;1.92;;;;;;;1.51;65.30;94196.00;5004383;28;20042;-78
2022/02/28 00:18:27;;;;;;;4.72;2.20;;;;;;;1.55;64.35;94188.44;5003174;28;20022;-78
2022/02/28 00:20:52;;;;;;;4.18;2.08;;;;;;;1.64;63.78;94184.31;5004225;28;20232;-78
2022/02/28 00:23:18;;;;;;;4.60;1.65;;;;;;;1.67;64.28;94183.00;5004294;28;20026;-78
2022/02/28 00:25:43;;;;;;;4.00;2.10;;;;;;;1.69;64.19;94187.00;5004371;28;20331;-78
2022/02/28 00:28:09;;;;;;;5.57;2.15;;;;;;;1.73;64.30;94174.13;5004054;28;20022;-77
2022/02/28 00:30:35;;;;;;;3.83;1.80;;;;;;;1.76;64.03;94171.78;5004048;28;20014;-78
2022/02/28 00:33:02;;;;;;;3.33;1.77;;;;;;;1.77;64.01;94178.66;5003825;28;20094;-78
2022/02/28 00:35:27;;;;;;;4.07;1.80;;;;;;;1.77;64.03;94167.31;5004180;28;20223;-78
2022/02/28 00:37:53;;;;;;;5.90;2.10;;;;;;;1.78;64.07;94166.28;5003878;28;20122;-78
2022/02/28 00:40:18;;;;;;;6.43;1.85;;;;;;;1.80;64.21;94172.09;5002647;28;20040;-78
2022/02/28 00:42:44;;;;;;;2.33;1.38;;;;;;;1.79;64.21;94173.94;5004078;28;20029;-78
2022/02/28 00:45:09;;;;;;;3.13;1.60;;;;;;;1.83;64.01;94166.31;5003786;28;20038;-78
2022/02/28 00:47:35;;;;;;;7.97;2.72;;;;;;;1.84;64.05;94161.88;5003691;28;20025;-77
2022/02/28 00:50:01;;;;;;;5.88;1.90;;;;;;;1.85;64.34;94169.50;5003821;28;20030;-78
2022/02/28 00:52:26;;;;;;;5.70;1.83;;;;;;;1.89;64.60;94162.69;5002536;28;20030;-77
2022/02/28 00:54:52;;;;;;;3.53;2.03;;;;;;;1.89;64.71;94159.28;5003548;28;20033;-77
2022/02/28 00:57:17;;;;;;;3.05;2.03;;;;;;;1.87;64.70;94161.38;5003571;28;20050;-78
2022/02/28 00:59:43;;;;;;;5.57;2.20;;;;;;;1.78;64.33;94161.03;5003801;28;20265;-78
2022/02/28 01:02:08;;;;;;;3.53;2.00;;;;;;;1.76;64.63;94158.66;5003563;28;20305;-77
2022/02/28 01:04:34;;;;;;;3.47;2.00;;;;;;;1.66;65.07;94155.94;5003496;28;20107;-76
2022/02/28 01:06:59;;;;;;;4.35;2.28;;;;;;;1.69;65.54;94155.44;5003369;28;20026;-77
2022/02/28 01:09:25;;;;;;;4.68;2.08;;;;;;;1.69;65.66;94158.09;5003621;28;20061;-78
2022/02/28 01:11:50;;;;;;;4.60;2.58;;;;;;;1.69;65.75;94155.44;5003500;28;20029;-78
2022/02/28 01:14:16;;;;;;;4.70;2.00;;;;;;;1.66;66.14;94150.69;5003463;28;20022;-77
2022/02/28 01:16:42;;;;;;;4.40;2.35;;;;;;;1.65;65.93;94162.25;5003531;28;20045;-77
2022/02/28 01:19:07;;;;;;;5.35;2.22;;;;;;;1.63;65.60;94156.44;5003434;28;20026;-77
2022/02/28 01:21:33;;;;;;;4.22;2.65;;;;;;;1.57;65.74;94157.44;5003306;28;20023;-78
2022/02/28 01:23:58;;;;;;;5.47;3.33;;;;;;;1.51;66.65;94153.19;5003244;28;20026;-78
2022/02/28 01:26:24;;;;;;;6.63;2.97;;;;;;;1.45;67.32;94160.22;5003053;28;20018;-78
2022/02/28 01:28:49;;;;;;;6.80;3.58;;;;;;;1.39;67.48;94148.09;5003308;28;20049;-78
2022/02/28 01:31:15;;;;;;;4.45;2.58;;;;;;;1.34;68.06;94151.47;5003550;28;20026;-79
2022/02/28 01:33:40;;;;;;;5.38;2.83;;;;;;;1.30;68.11;94146.94;5003189;28;20085;-79
2022/02/28 01:36:06;;;;;;;4.95;2.50;;;;;;;1.26;68.67;94151.09;5003306;28;20030;-78
2022/02/28 01:38:31;;;;;;;7.97;2.78;;;;;;;1.32;69.43;94145.66;5003114;28;20328;-78
2022/02/28 01:40:57;;;;;;;5.32;2.63;;;;;;;1.37;69.65;94148.31;5003080;28;20041;-78
2022/02/28 01:43:22;;;;;;;3.42;2.40;;;;;;;1.39;69.05;94146.25;5003028;28;20019;-77
2022/02/28 01:45:48;;;;;;;5.40;3.35;;;;;;;1.32;68.22;94148.28;5003009;28;20022;-78
2022/02/28 01:48:13;;;;;;;5.55;2.90;;;;;;;1.23;67.98;94139.25;5003309;28;20325;-78
2022/02/28 01:50:39;;;;;;;4.95;3.00;;;;;;;1.11;68.06;94141.22;5003150;28;20022;-78
2022/02/28 01:53:04;;;;;;;5.50;3.10;;;;;;;0.98;68.36;94143.22;5002948;28;20026;-77
2022/02/28 01:55:30;;;;;;;5.63;3.20;;;;;;;0.92;68.30;94133.69;5002804;28;20085;-78
2022/02/28 01:57:56;;;;;;;4.88;2.67;;;;;;;0.80;67.90;94133.03;5002953;28;20290;-78
2022/02/28 02:00:25;;;;;;;8.07;3.30;;;;;;;0.65;67.74;94135.47;5003203;28;20018;-78
2022/02/28 02:02:51;;;;;;;6.00;3.03;;;;;;;0.55;68.15;94130.88;5002878;28;20090;-78
2022/02/28 02:05:18;;;;;;;3.53;2.20;;;;;;;0.34;68.13;94129.81;5002881;28;20022;-78
2022/02/28 02:07:43;;;;;;;4.15;2.45;;;;;;;0.17;68.65;94142.97;5003112;28;20033;-78
2022/02/28 02:10:11;;;;;;;3.53;1.73;;;;;;;-0.09;68.84;94133.94;5002926;28;20245;-78
2022/02/28 02:12:36;;;;;;;3.90;2.10;;;;;;;-0.37;69.91;94130.38;5002810;28;20014;-78
2022/02/28 02:15:10;;;;;;;4.50;1.90;;;;;;;-0.51;71.13;94136.97;5002761;28;20052;-78
2022/02/28 02:17:36;;;;;;;4.22;2.17;;;;;;;-0.72;71.44;94134.00;5002818;28;20022;-77
2022/02/28 02:20:30;;;;;;;3.47;1.83;;;;;;;-0.82;72.38;94128.59;5002844;28;20022;-77
2022/02/28 02:23:02;;;;;;;4.13;2.13;;;;;;;-0.79;71.76;94135.97;5017811;28;20046;-77
2022/02/28 02:25:28;;;;;;;3.67;1.77;;;;;;;-0.76;72.23;94135.50;5002831;28;20217;-77
2022/02/28 02:27:54;;;;;;;3.33;1.38;;;;;;;-0.72;71.11;94143.69;5002736;28;20022;-77
2022/02/28 02:30:20;;;;;;;2.35;1.33;;;;;;;-0.67;71.54;94135.91;5002604;28;20022;-77
2022/02/28 02:32:46;;;;;;;2.60;1.48;;;;;;;-0.63;71.56;94126.56;5002548;28;20026;-77
2022/02/28 02:35:12;;;;;;;2.08;1.35;;;;;;;-0.70;71.95;94137.19;5002663;28;20106;-77
2022/02/28 02:37:38;;;;;;;3.80;1.52;;;;;;;-0.67;71.81;94130.66;5004890;28;20026;-76
2022/02/28 02:40:04;;;;;;;3.38;1.70;;;;;;;-0.66;71.07;94133.06;5005847;28;20069;-77
2022/02/28 02:42:30;;;;;;;2.92;1.55;;;;;;;-0.61;71.70;94129.75;5006034;28;20026;-77
2022/02/28 02:44:55;;;;;;;2.60;1.45;;;;;;;-0.56;71.11;94121.97;5005849;28;20248;-78
2022/02/28 02:47:20;;;;;;;2.28;1.42;;;;;;;-0.51;71.55;94131.72;5005807;28;20022;-77
2022/02/28 02:49:46;;;;;;;2.20;1.33;;;;;;;-0.63;71.26;94134.44;5006127;28;20108;-77
2022/02/28 02:52:11;;;;;;;2.80;1.45;;;;;;;-0.74;71.13;94136.06;5005928;28;20046;-77
2022/02/28 02:54:37;;;;;;;4.00;1.65;;;;;;;-0.76;71.05;94122.41;5005838;28;20022;-77
2022/02/28 02:57:02;;;;;;;2.13;1.15;;;;;;;-0.81;71.50;94132.81;5005828;28;20220;-77
2022/02/28 02:59:28;;;;;;;2.05;1.35;;;;;;;-0.76;72.42;94130.25;5004585;28;20140;-77
2022/02/28 03:01:53;;;;;;;2.90;1.58;;;;;;;-0.89;71.78;94133.97;5005913;28;20034;-77
2022/02/28 03:04:18;;;;;;;3.00;1.60;;;;;;;-0.84;71.73;94133.25;5006010;28;20014;-77
2022/02/28 03:06:44;;;;;;;2.75;1.35;;;;;;;-0.83;71.09;94133.03;5005485;28;20026;-77
2022/02/28 03:09:14;;;;;;;2.40;1.40;;;;;;;-0.71;71.94;94137.41;5005683;28;20026;-76
2022/02/28 03:11:44;;;;;;;6.28;1.42;;;;;;;-0.77;71.05;94135.72;5005551;28;20246;-77
2022/02/28 03:14:11;;;;;;;2.58;1.50;;;;;;;-0.81;70.68;94130.19;5005503;28;20229;-76
2022/02/28 03:16:37;;;;;;;3.70;1.50;;;;;;;-0.77;69.66;94141.78;5005278;28;20101;-76
2022/02/28 03:19:03;;;;;;;4.35;1.45;;;;;;;-1.04;69.61;94144.16;5005511;28;20045;-76
2022/02/28 03:21:28;;;;;;;3.25;1.45;;;;;;;-0.99;69.63;94139.03;5005311;28;20018;-76
2022/02/28 03:23:54;;;;;;;3.53;1.85;;;;;;;-0.99;71.05;94133.00;5005237;28;20069;-76
2022/02/28 03:26:19;;;;;;;2.45;1.30;;;;;;;-1.07;70.18;94137.56;5005270;28;20026;-76
2022/02/28 03:28:45;;;;;;;2.45;1.30;;;;;;;-1.08;70.96;94136.00;5005318;28;20022;-76
2022/02/28 03:31:10;;;;;;;3.47;1.38;;;;;;;-1.04;72.03;94129.28;5005218;28;20026;-76
2022/02/28 03:33:36;;;;;;;2.58;1.42;;;;;;;-0.99;70.73;94131.19;5004952;28;20018;-76
2022/02/28 03:36:02;;;;;;;3.58;1.58;;;;;;;-0.96;70.57;94130.69;5004948;28;20026;-76
2022/02/28 03:38:28;;;;;;;4.20;1.70;;;;;;;-0.88;71.18;94127.69;5003942;28;20097;-77
2022/02/28 03:40:53;;;;;;;3.50;1.48;;;;;;;-0.86;69.77;94132.69;5004814;28;20129;-77
2022/02/28 03:43:19;;;;;;;3.45;1.90;;;;;;;-0.80;70.78;94137.00;5005195;28;20018;-76
2022/02/28 03:45:45;;;;;;;3.03;1.38;;;;;;;-0.72;68.79;94141.84;5004922;28;20026;-76
2022/02/28 03:48:10;;;;;;;2.67;1.40;;;;;;;-0.67;69.37;94152.41;5004889;28;20030;-76
2022/02/28 03:50:36;;;;;;;2.75;1.48;;;;;;;-0.76;68.91;94145.19;5004740;28;20058;-76
2022/02/28 03:53:01;;;;;;;1.83;1.20;;;;;;;-0.72;69.67;94148.91;5003653;28;20312;-77
2022/02/28 03:55:27;;;;;;;6.75;1.73;;;;;;;-0.83;68.89;94161.03;5004686;28;20030;-77
2022/02/28 03:57:52;;;;;;;3.40;1.85;;;;;;;-0.76;69.18;94151.19;5004782;28;20054;-77
2022/02/28 04:00:18;;;;;;;3.75;1.45;;;;;;;-0.75;69.01;94152.81;5004756;28;20388;-77
2022/02/28 04:02:44;;;;;;;4.20;1.70;;;;;;;-0.69;67.99;94156.28;5004627;28;20022;-77
2022/02/28 04:05:10;;;;;;;7.97;2.10;;;;;;;-0.69;67.16;94153.66;5004460;28;20233;-77
2022/02/28 04:07:36;;;;;;;3.67;1.40;;;;;;;-0.60;67.95;94154.88;5004613;28;20027;-77
2022/02/28 04:10:03;;;;;;;2.72;1.55;;;;;;;-0.54;68.80;94156.56;5004471;28;20245;-77
2022/02/28 04:12:29;;;;;;;4.80;1.55;;;;;;;-0.36;69.33;94158.16;5004239;28;20267;-77
2022/02/28 04:14:55;;;;;;;2.15;1.35;;;;;;;-0.32;69.34;94148.81;5004157;28;20052;-77
2022/02/28 04:17:20;;;;;;;3.05;1.33;;;;;;;-0.29;67.06;94153.56;5004495;28;20022;-77
2022/02/28 04:19:46;;;;;;;3.13;1.92;;;;;;;-0.28;67.44;94151.75;5004022;28;20193;-77
2022/02/28 04:22:11;;;;;;;2.72;1.30;;;;;;;-0.27;68.70;94156.72;5004191;28;20133;-78
2022/02/28 04:24:37;;;;;;;3.35;1.83;;;;;;;-0.30;67.89;94154.59;5002949;28;20026;-78
2022/02/28 04:27:02;;;;;;;2.67;1.60;;;;;;;-0.44;67.46;94161.19;5004130;28;20022;-77
2022/02/28 04:29:28;;;;;;;4.07;1.73;;;;;;;-0.43;67.82;94157.50;5004179;28;20026;-77
2022/02/28 04:31:53;;;;;;;3.13;1.70;;;;;;;-0.59;69.30;94159.09;5004113;28;20202;-77
2022/02/28 04:34:19;;;;;;;2.67;1.67;;;;;;;-0.71;70.80;94172.25;5004058;28;20025;-78
2022/02/28 04:36:44;;;;;;;7.07;1.73;;;;;;;-0.66;71.10;94161.84;5004100;28;20202;-78
2022/02/28 04:39:10;;;;;;;3.55;1.48;;;;;;;-0.64;70.87;94165.03;5003911;28;20026;-78
2022/02/28 04:41:36;;;;;;;2.58;1.40;;;;;;;-0.66;70.71;94174.94;5003710;28;20050;-78
2022/02/28 04:44:02;;;;;;;3.53;2.03;;;;;;;-0.72;71.20;94170.66;5003635;28;20030;-77
2022/02/28 04:46:27;;;;;;;3.58;1.58;;;;;;;-0.66;70.90;94174.16;5003905;28;20034;-77
2022/02/28 04:48:52;;;;;;;2.78;1.60;;;;;;;-0.61;71.00;94177.66;5003912;28;20049;-76
2022/02/28 04:51:18;;;;;;;3.40;2.10;;;;;;;-0.58;70.96;94178.22;5003752;28;20034;-77
2022/02/28 04:53:43;;;;;;;3.80;1.60;;;;;;;-0.54;70.26;94171.47;5003425;28;20058;-78
2022/02/28 04:56:09;;;;;;;4.43;1.73;;;;;;;-0.47;70.92;94174.72;5003686;28;20324;-78
2022/02/28 04:58:34;;;;;;;5.75;1.63;;;;;;;-0.58;70.34;94168.53;5003653;28;20092;-77
2022/02/28 05:01:00;;;;;;;2.92;1.83;;;;;;;-0.51;70.72;94178.84;5003271;28;20053;-77
2022/02/28 05:03:25;;;;;;;3.88;1.80;;;;;;;-0.45;70.49;94181.34;5003414;28;20029;-76
2022/02/28 05:05:51;;;;;;;4.97;1.88;;;;;;;-0.42;69.79;94177.44;5003826;28;20037;-77
2022/02/28 05:08:16;;;;;;;3.17;1.48;;;;;;;-0.62;69.75;94189.16;5003292;28;20034;-77
2022/02/28 05:10:42;;;;;;;3.92;1.98;;;;;;;-0.45;69.93;94188.38;5003322;28;20022;-78
2022/02/28 05:13:07;;;;;;;5.35;2.88;;;;;;;-0.36;70.47;94188.81;5003275;28;20045;-77
2022/02/28 05:15:33;;;;;;;25.52;13.88;;;;;;;-0.30;70.43;94193.91;5003350;28;20101;-77
2022/02/28 05:17:58;;;;;;;3.88;2.13;;;;;;;-0.31;69.55;94181.81;5003190;28;20097;-77
2022/02/28 05:20:24;;;;;;;3.28;1.85;;;;;;;-0.26;70.45;94195.00;5003321;28;20030;-77
2022/02/28 05:22:50;;;;;;;2.70;1.42;;;;;;;-0.15;71.39;94192.56;5003364;28;20026;-76
2022/02/28 05:25:15;;;;;;;3.65;2.08;;;;;;;-0.06;70.84;94201.59;5003280;28;20033;-78
2022/02/28 05:27:44;;;;;;;3.70;1.40;;;;;;;-0.05;69.92;94195.34;5003148;28;20033;-79
2022/02/28 05:30:11;;;;;;;3.42;1.88;;;;;;;-0.08;69.03;94188.75;5003160;28;20026;-79
2022/02/28 05:32:38;;;;;;;4.97;2.75;;;;;;;-0.03;70.40;94209.00;5003110;28;20026;-78
2022/02/28 05:35:08;;;;;;;5.70;1.88;;;;;;;0.06;71.29;94207.56;5003325;28;20035;-78
2022/02/28 05:37:33;;;;;;;3.10;1.65;;;;;;;0.10;70.08;94205.25;5003186;28;20029;-79
2022/02/28 05:39:59;;;;;;;3.67;1.75;;;;;;;0.16;69.38;94205.09;5002825;28;20041;-77
2022/02/28 05:42:24;;;;;;;3.17;1.83;;;;;;;0.21;70.30;94211.47;5003295;28;20026;-77
2022/02/28 05:44:50;;;;;;;4.10;1.73;;;;;;;0.25;70.60;94217.81;5003114;28;20026;-77
2022/02/28 05:47:16;;;;;;;4.97;2.47;;;;;;;0.24;69.78;94214.38;5002978;28;20034;-78
2022/02/28 05:49:41;;;;;;;5.72;2.28;;;;;;;0.28;69.40;94215.47;5003346;28;20030;-78
2022/02/28 05:52:07;;;;;;;3.20;2.03;;;;;;;0.40;69.58;94218.03;5003213;28;20313;-77
2022/02/28 05:54:32;;;;;;;5.70;1.85;;;;;;;0.51;69.41;94201.41;5003158;28;20037;-78
2022/02/28 05:56:58;;;;;;;4.35;1.90;;;;;;;0.53;68.72;94212.44;5002982;28;20022;-79
2022/02/28 05:59:23;;;;;;;6.70;2.35;;;;;;;0.57;68.27;94217.97;5003223;28;20081;-79
2022/02/28 06:01:49;;;;;;;5.18;2.10;;;;;;;0.65;68.19;94209.69;5003357;28;20241;-79
2022/02/28 06:04:14;;;;;;;5.82;1.92;;;;;;;0.69;67.93;94213.47;5003145;28;20015;-79
2022/02/28 06:06:40;;;;;;;4.00;1.65;;;;;;;0.77;67.38;94212.22;5002972;28;20221;-77
2022/02/28 06:09:05;;;;;;;2.90;1.25;;;;;;;0.83;66.74;94211.25;5003001;28;20018;-77
2022/02/28 06:11:32;;;;;;;4.00;1.70;;;;;;;0.88;65.80;94213.16;5003739;28;20046;-77
2022/02/28 06:13:57;;;;;;;4.57;2.50;;;;;;;0.97;65.81;94204.59;5006555;28;20022;-76
2022/02/28 06:16:23;;;;;;;5.80;2.53;;;;;;;1.04;66.04;94211.50;5006474;28;20072;-76
2022/02/28 06:18:49;;;;;;;8.43;2.85;;;;;;;1.15;66.33;94206.13;5006840;28;20085;-77
2022/02/28 06:21:14;;;;;;;6.55;2.88;;;;;;;1.27;66.35;94211.25;5006524;28;20309;-77
2022/02/28 06:23:41;;;;;;;3.33;1.73;;;;;;;1.34;65.67;94217.13;5006721;28;20037;-77
2022/02/28 06:26:06;;;;;;;3.55;2.00;;;;;;;1.43;64.89;94219.31;5006118;28;20045;-77
2022/02/28 06:28:32;;;;;;;3.85;1.73;;;;;;;1.43;64.71;94212.22;5006374;28;20339;-77
2022/02/28 06:30:59;;;;;;;5.30;2.15;;;;;;;1.45;63.42;94217.22;5006319;28;20022;-78
2022/02/28 06:33:24;;;;;;;4.68;2.22;;;;;;;1.51;64.58;94211.00;5006410;28;20030;-78
2022/02/28 06:35:50;;;;;;;5.55;2.15;;;;;;;1.65;64.70;94214.81;5006652;28;20065;-79
2022/02/28 06:38:16;;;;;;;5.07;2.28;;;;;;;1.78;64.31;94216.22;5006452;28;20041;-78
2022/02/28 06:40:44;;;;;;;2.95;1.70;;;;;;;1.94;63.54;94214.53;5006166;28;20038;-78
2022/02/28 06:43:09;;;;;;;3.95;1.73;;;;;;;2.08;62.64;94220.97;5006056;28;20022;-78
2022/02/28 06:45:35;;;;;;;6.47;2.45;;;;;;;2.12;62.33;94216.00;5004976;28;20093;-78
2022/02/28 06:48:00;;;;;;;4.78;2.22;;;;;;;2.25;62.29;94212.16;5005805;28;20019;-78
2022/02/28 06:50:26;;;;;;;5.63;2.72;;;;;;;2.36;62.14;94208.53;5005969;28;20101;-78
2022/02/28 06:52:51;;;;;;;12.20;4.88;;;;;;;2.49;61.05;94210.72;5005890;28;20025;-78
2022/02/28 06:55:17;;;;;;;10.70;3.63;;;;;;;2.53;61.39;94200.50;5006047;28;20029;-78
2022/02/28 06:57:42;;;;;;;6.38;2.88;;;;;;;2.65;61.76;94211.63;5005880;28;20316;-78
2022/02/28 07:00:08;;;;;;;6.60;2.80;;;;;;;2.65;61.28;94203.72;5005852;28;20028;-78
2022/02/28 07:02:34;;;;;;;6.00;3.35;;;;;;;2.75;60.80;94205.63;5005791;28;20098;-78
2022/02/28 07:04:59;;;;;;;6.00;2.80;;;;;;;2.82;60.12;94208.81;5020921;28;20045;-79
2022/02/28 07:07:24;;;;;;;7.18;3.72;;;;;;;2.81;60.19;94199.34;5005887;28;20073;-78
2022/02/28 07:09:50;;;;;;;6.32;3.63;;;;;;;2.85;59.92;94212.78;5005880;28;20385;-78
2022/02/28 07:12:16;;;;;;;5.78;3.20;;;;;;;2.85;59.87;94207.50;5005535;28;20220;-78
2022/02/28 07:14:42;;;;;;;5.45;2.63;;;;;;;2.85;59.54;94202.25;5005641;28;20026;-76
2022/02/28 07:17:08;;;;;;;8.07;2.83;;;;;;;2.84;59.98;94213.84;5005624;28;20018;-76
2022/02/28 07:19:36;;;;;;;6.72;3.33;;;;;;;2.85;61.01;94208.31;5005476;28;20093;-76
2022/02/28 07:22:02;;;;;;;4.80;3.17;;;;;;;2.82;60.77;94206.19;5004165;28;20156;-76
2022/02/28 07:24:28;;;;;;;5.13;2.40;;;;;;;2.83;60.75;94202.50;5004410;28;20317;-76
2022/02/28 07:26:54;;;;;;;8.13;2.00;;;;;;;2.89;60.28;94206.75;5005669;28;20026;-76
2022/02/28 07:29:19;;;;;;;3.63;1.73;;;;;;;2.91;60.29;94207.28;5005441;28;20052;-77
2022/02/28 07:31:45;;;;;;;4.22;2.38;;;;;;;2.95;60.45;94215.44;5005485;28;20027;-76
2022/02/28 07:34:10;;;;;;;8.57;3.10;;;;;;;2.96;60.86;94209.16;5005179;28;20336;-76
2022/02/28 07:36:36;;;;;;;8.43;3.20;;;;;;;2.99;60.43;94204.16;5005191;28;20030;-77
2022/02/28 07:39:03;;;;;;;13.15;2.72;;;;;;;3.04;60.97;94215.78;5003815;28;20338;-77
2022/02/28 07:41:29;;;;;;;4.03;2.20;;;;;;;3.11;61.09;94211.06;5005009;28;20053;-76
2022/02/28 07:43:54;;;;;;;7.20;2.08;;;;;;;3.16;60.60;94213.72;5005218;28;20030;-76
2022/02/28 07:46:20;;;;;;;6.18;2.15;;;;;;;3.19;60.71;94215.81;5005167;28;20026;-77
2022/02/28 07:48:45;;;;;;;9.73;2.53;;;;;;;3.25;60.63;94216.63;5004762;28;20030;-75
2022/02/28 07:51:11;;;;;;;4.50;2.35;;;;;;;3.29;60.24;94226.41;5004887;28;20037;-75
2022/02/28 07:53:36;;;;;;;4.18;2.10;;;;;;;3.33;60.59;94216.94;5004856;28;20026;-75
2022/02/28 07:56:02;;;;;;;3.88;2.40;;;;;;;3.33;60.39;94224.84;5004662;28;20228;-75
2022/02/28 07:58:27;;;;;;;8.38;2.58;;;;;;;3.28;60.23;94227.47;5004713;28;20038;-76
2022/02/28 08:00:52;;;;;;;7.60;3.20;;;;;;;3.30;60.30;94228.00;5020094;28;20080;-75
2022/02/28 08:03:18;;;;;;;10.98;2.80;;;;;;;3.25;59.68;94235.88;5004784;28;20050;-75
2022/02/28 08:05:43;;;;;;;8.10;2.65;;;;;;;3.31;59.71;94232.19;5004660;28;20038;-75
2022/02/28 08:08:09;;;;;;;5.78;2.75;;;;;;;3.25;59.50;94233.22;5004834;28;20077;-75
2022/02/28 08:10:35;;;;;;;8.85;2.25;;;;;;;3.25;60.26;94232.44;5004490;28;20354;-75
2022/02/28 08:13:00;;;;;;;9.20;2.83;;;;;;;3.25;60.16;94238.50;5004401;28;20321;-75
2022/02/28 08:15:26;;;;;;;5.35;2.00;;;;;;;3.25;59.74;94235.09;5003146;28;20034;-75
2022/02/28 08:17:51;;;;;;;6.25;2.38;;;;;;;3.25;59.46;94233.22;5004675;28;20026;-76
2022/02/28 08:20:16;;;;;;;3.88;2.08;;;;;;;3.23;59.22;94230.06;5004396;28;20026;-75
2022/02/28 08:22:42;;;;;;;3.03;1.60;;;;;;;3.24;58.84;94242.19;5004403;28;20022;-73
2022/02/28 08:25:07;;;;;;;3.83;2.25;;;;;;;3.35;58.26;94233.28;5004061;28;20066;-74
2022/02/28 08:27:33;;;;;;;8.98;2.55;;;;;;;3.39;58.76;94233.56;5004114;28;20101;-74
2022/02/28 08:29:59;;;;;;;3.90;1.63;;;;;;;3.50;58.75;94239.63;5004071;28;20053;-75
2022/02/28 08:32:25;;;;;;;8.20;1.70;;;;;;;3.59;58.35;94233.63;5004258;28;20027;-73
2022/02/28 08:34:50;;;;;;;5.82;2.95;;;;;;;3.68;58.06;94230.47;5002263;28;20026;-75
2022/02/28 08:37:16;;;;;;;3.88;1.80;;;;;;;3.79;57.36;94230.22;5004052;28;20190;-73
2022/02/28 08:39:41;;;;;;;8.48;2.38;;;;;;;3.85;56.77;94233.69;5003784;28;20022;-74
2022/02/28 08:42:07;;;;;;;5.50;2.83;;;;;;;3.82;56.02;94237.59;5003767;28;20344;-73
2022/02/28 08:44:32;;;;;;;4.63;2.30;;;;;;;3.81;55.41;94236.03;5003928;28;20244;-74
2022/02/28 08:46:58;;;;;;;8.55;2.97;;;;;;;3.77;55.76;94227.06;5003794;28;20041;-78
2022/02/28 08:49:23;;;;;;;10.63;4.50;;;;;;;3.75;55.97;94226.53;5003986;28;20046;-74
2022/02/28 08:51:50;;;;;;;13.10;5.13;;;;;;;3.77;55.48;94234.97;5003434;28;20026;-72
2022/02/28 08:54:16;;;;;;;32.47;13.68;;;;;;;3.73;55.61;94235.75;5003607;28;20073;-72
2022/02/28 08:56:41;;;;;;;29.65;13.00;;;;;;;3.64;56.44;94246.00;5003503;28;20034;-72
2022/02/28 08:59:07;;;;;;;36.83;13.57;;;;;;;3.68;57.02;94241.78;5002359;28;20053;-72
2022/02/28 09:01:33;;;;;;;17.02;6.15;;;;;;;3.68;56.04;94247.06;5003314;28;20423;-75
2022/02/28 09:03:59;;;;;;;12.80;4.13;;;;;;;3.69;55.40;94251.31;5003440;28;20019;-74
2022/02/28 09:06:24;;;;;;;11.07;4.72;;;;;;;3.75;55.97;94255.53;5003527;28;20026;-74
2022/02/28 09:08:49;;;;;;;8.63;3.67;;;;;;;3.84;55.90;94249.75;5003270;28;20037;-74
2022/02/28 09:11:16;;;;;;;5.05;2.40;;;;;;;3.93;55.19;94253.44;5003456;28;20267;-74
2022/02/28 09:13:42;;;;;;;8.00;3.35;;;;;;;3.98;54.21;94253.47;5003381;28;20252;-73
2022/02/28 09:16:07;;;;;;;7.63;3.67;;;;;;;4.00;54.95;94259.28;5003336;28;20034;-73
2022/02/28 09:18:33;;;;;;;15.45;3.20;;;;;;;4.02;55.22;94263.22;5003215;28;20216;-73
2022/02/28 09:20:59;;;;;;;9.23;3.17;;;;;;;3.89;55.25;94262.94;5003099;28;20069;-74
2022/02/28 09:23:24;;;;;;;11.40;3.03;;;;;;;3.81;54.70;94267.69;5003499;28;20321;-75
2022/02/28 09:25:50;;;;;;;5.35;2.65;;;;;;;3.73;53.74;94270.03;5003281;28;20317;-73
2022/02/28 09:28:16;;;;;;;5.28;3.10;;;;;;;3.54;54.52;94269.69;5003186;28;20199;-72
2022/02/28 09:30:41;;;;;;;9.30;2.97;;;;;;;3.40;55.28;94262.28;5003230;28;20026;-73
2022/02/28 09:33:07;;;;;;;10.32;3.40;;;;;;;3.39;56.12;94278.34;5003130;28;20024;-74
2022/02/28 09:35:32;;;;;;;7.60;3.20;;;;;;;3.30;55.86;94272.78;5003271;28;20057;-71
2022/02/28 09:37:58;;;;;;;6.32;2.90;;;;;;;3.09;56.19;94273.72;5003126;28;20022;-73
2022/02/28 09:40:27;;;;;;;10.27;4.13;;;;;;;3.00;57.20;94274.22;5003168;28;20264;-73
2022/02/28 09:42:59;;;;;;;5.80;3.10;;;;;;;2.93;56.52;94281.56;5003321;28;20048;-75
2022/02/28 09:45:25;;;;;;;4.53;2.40;;;;;;;2.87;56.20;94279.13;5003664;28;20026;-73
2022/02/28 09:47:51;;;;;;;6.05;2.58;;;;;;;2.83;56.57;94275.41;5006989;28;20038;-73
2022/02/28 09:50:17;;;;;;;5.25;2.80;;;;;;;2.83;57.49;94268.34;5007029;28;20121;-72
2022/02/28 09:52:45;;;;;;;5.80;2.58;;;;;;;2.84;56.80;94277.00;5006762;28;20037;-73
2022/02/28 09:55:15;;;;;;;8.70;2.97;;;;;;;2.85;57.14;94266.25;5006799;28;20038;-73
2022/02/28 09:57:50;;;;;;;8.15;2.55;;;;;;;2.87;57.50;94258.88;5007132;28;20212;-75
2022/02/28 10:00:21;;;;;;;6.43;3.40;;;;;;;2.99;57.42;94272.63;5006935;28;20572;-74
2022/02/28 10:02:48;;;;;;;8.07;3.53;;;;;;;3.15;58.01;94260.31;5006747;28;20049;-76
2022/02/28 10:05:14;;;;;;;7.78;2.75;;;;;;;3.17;56.64;94257.44;5006829;28;20038;-75
2022/02/28 10:07:57;;;;;;;4.70;2.00;;;;;;;3.32;55.94;94270.69;5006768;28;20022;-75
2022/02/28 10:10:25;;;;;;;7.10;2.22;;;;;;;3.54;56.61;94261.78;5007029;28;20058;-74
2022/02/28 10:12:52;;;;;;;4.38;2.08;;;;;;;3.64;54.44;94258.41;5006492;28;20028;-75
2022/02/28 10:15:20;;;;;;;10.88;2.67;;;;;;;3.73;54.65;94262.91;5006365;28;20034;-75
2022/02/28 10:17:57;;;;;;;6.57;2.25;;;;;;;3.74;53.67;94267.13;5006569;28;20523;-75
2022/02/28 10:20:37;;;;;;;7.35;2.15;;;;;;;3.91;53.92;94260.81;5006670;28;20308;-76
2022/02/28 10:23:06;;;;;;;4.57;2.33;;;;;;;4.07;53.72;94265.09;5006473;28;20084;-75
2022/02/28 10:25:34;;;;;;;5.18;2.17;;;;;;;4.27;53.99;94260.88;5006382;28;20025;-75
2022/02/28 10:28:20;;;;;;;4.65;2.05;;;;;;;4.41;53.43;94262.72;5006462;28;20018;-75
2022/02/28 10:30:52;;;;;;;3.03;1.77;;;;;;;4.46;52.41;94267.22;5006454;28;20041;-74
2022/02/28 10:33:18;;;;;;;7.25;2.10;;;;;;;4.36;51.93;94257.47;5006258;28;20094;-74
2022/02/28 10:36:01;;;;;;;4.93;1.92;;;;;;;4.43;53.37;94257.97;5006066;28;20058;-74
2022/02/28 10:38:29;;;;;;;6.88;2.58;;;;;;;4.26;53.21;94256.69;5006041;28;20347;-74
2022/02/28 10:40:55;;;;;;;8.43;2.72;;;;;;;4.13;53.86;94261.41;5006201;28;20046;-74
2022/02/28 10:43:25;;;;;;;4.20;2.10;;;;;;;4.05;53.46;94251.38;5005907;28;20046;-74
2022/02/28 10:45:51;;;;;;;4.35;2.30;;;;;;;4.08;54.85;94256.13;5005939;28;20190;-75
2022/02/28 10:48:16;;;;;;;8.18;3.40;;;;;;;4.22;54.83;94262.47;5005731;28;20098;-74
2022/02/28 10:50:42;;;;;;;5.30;2.45;;;;;;;4.47;54.88;94262.75;5005675;28;20022;-75
2022/02/28 10:53:15;;;;;;;8.52;2.30;;;;;;;4.32;53.17;94258.25;5005160;28;20189;-74
2022/02/28 10:55:42;;;;;;;4.80;2.25;;;;;;;4.24;53.92;94254.28;5005702;28;20041;-74
2022/02/28 10:58:14;;;;;;;4.30;2.80;;;;;;;4.40;54.63;94247.97;5004271;28;20029;-75
2022/02/28 11:00:59;;;;;;;5.30;2.30;;;;;;;4.49;52.74;94245.56;5005043;28;20029;-75
2022/02/28 11:03:26;;;;;;;4.03;2.13;;;;;;;4.46;53.53;94248.75;5005225;28;20336;-76
2022/02/28 11:05:54;;;;;;;5.00;2.53;;;;;;;4.49;53.95;94248.22;5004968;28;20022;-75
2022/02/28 11:08:22;;;;;;;5.13;2.42;;;;;;;4.58;53.77;94248.47;5003889;28;20028;-75
2022/02/28 11:10:48;;;;;;;6.32;3.08;;;;;;;4.58;53.96;94248.47;5004780;28;20033;-75
2022/02/28 11:13:14;;;;;;;8.10;3.08;;;;;;;4.53;53.83;94246.63;5005328;28;20018;-75
2022/02/28 11:15:40;;;;;;;4.75;2.55;;;;;;;4.45;54.57;94254.28;5005361;28;20077;-74
2022/02/28 11:18:10;;;;;;;5.88;2.58;;;;;;;4.46;53.82;94255.88;5003086;28;20025;-74
2022/02/28 11:20:36;;;;;;;7.43;3.35;;;;;;;4.44;53.85;94261.44;5004927;28;20462;-74
2022/02/28 11:23:04;;;;;;;7.78;2.42;;;;;;;4.43;51.95;94260.63;5005280;28;20026;-74
2022/02/28 11:25:30;;;;;;;6.40;2.78;;;;;;;4.34;52.95;94256.94;5005328;28;20089;-75
2022/02/28 11:27:58;;;;;;;8.73;3.22;;;;;;;4.12;52.60;94248.47;5020488;28;20225;-74
2022/02/28 11:30:26;;;;;;;5.75;2.35;;;;;;;4.32;53.26;94253.78;5005207;28;20098;-75
2022/02/28 11:33:06;;;;;;;4.55;2.47;;;;;;;4.41;51.94;94249.53;5005002;28;20391;-75
2022/02/28 11:35:43;;;;;;;8.23;2.80;;;;;;;4.47;51.89;94252.19;5005138;28;20034;-75